createdAt,value
2022-11-19T00:01:58.006Z,14.50
2022-11-19T00:04:10.484Z,14.70
2022-11-19T00:06:18.084Z,14.73
2022-11-19T00:08:23.559Z,14.80
2022-11-19T00:10:29.160Z,14.13
2022-11-19T00:12:46.686Z,14.40
2022-11-19T00:14:51.824Z,15.15
2022-11-19T00:16:57.434Z,14.73
2022-11-19T00:19:05.195Z,15.15
2022-11-19T00:21:13.050Z,15.38
2022-11-19T00:23:18.890Z,14.65
2022-11-19T00:25:25.661Z,14.55
2022-11-19T00:27:31.268Z,14.73
2022-11-19T00:29:37.509Z,15.93
2022-11-19T00:31:42.921Z,16.13
2022-11-19T00:33:50.724Z,16.48
2022-11-19T00:36:01.833Z,16.88
2022-11-19T00:38:07.083Z,16.77
2022-11-19T00:40:13.435Z,16.60
2022-11-19T00:42:19.035Z,16.65
2022-11-19T00:44:21.515Z,16.30
2022-11-19T00:46:29.548Z,16.48
2022-11-19T00:48:35.163Z,16.85
2022-11-19T00:50:40.982Z,17.27
2022-11-19T00:52:49.078Z,15.32
2022-11-19T00:54:54.185Z,16.15
2022-11-19T00:56:59.304Z,16.30
2022-11-19T00:59:04.452Z,16.30
2022-11-19T01:01:12.058Z,15.85
2022-11-19T01:03:17.604Z,15.88
2022-11-19T01:05:23.126Z,13.82
2022-11-19T01:07:28.695Z,15.63
2022-11-19T01:09:36.922Z,15.18
2022-11-19T01:11:42.013Z,15.48
2022-11-19T01:13:45.077Z,16.38
2022-11-19T01:15:51.671Z,16.23
2022-11-19T01:17:57.212Z,15.63
2022-11-19T01:20:02.224Z,16.08
2022-11-19T01:22:07.775Z,15.85
2022-11-19T01:24:12.733Z,16.73
2022-11-19T01:26:21.500Z,15.93
2022-11-19T01:28:27.961Z,17.25
2022-11-19T01:30:33.190Z,16.30
2022-11-19T01:32:38.536Z,15.68
2022-11-19T01:34:43.921Z,16.17
2022-11-19T01:36:49.176Z,16.67
2022-11-19T01:38:55.420Z,16.90
2022-11-19T01:41:02.468Z,16.55
2022-11-19T01:43:14.243Z,17.45
2022-11-19T01:45:30.197Z,17.25
2022-11-19T01:47:36.782Z,17.05
2022-11-19T01:49:41.802Z,15.68
2022-11-19T01:51:52.641Z,17.88
2022-11-19T01:54:01.032Z,16.73
2022-11-19T01:56:09.566Z,17.88
2022-11-19T01:58:24.007Z,15.75
2022-11-19T02:00:30.659Z,16.48
2022-11-19T02:02:37.875Z,15.68
2022-11-19T02:04:43.569Z,16.33
2022-11-19T02:06:50.455Z,15.40
2022-11-19T02:08:55.679Z,14.65
2022-11-19T02:11:13.692Z,16.17
2022-11-19T02:13:33.105Z,14.98
2022-11-19T02:18:27.703Z,15.02
2022-11-19T02:20:52.955Z,13.45
2022-11-19T02:23:46.179Z,15.25
2022-11-19T02:26:22.793Z,15.57
2022-11-19T02:28:40.992Z,15.18
2022-11-19T02:30:54.244Z,15.35
2022-11-19T02:33:05.993Z,16.33
2022-11-19T02:35:26.684Z,15.93
2022-11-19T02:37:40.122Z,16.52
2022-11-19T02:39:53.493Z,15.80
2022-11-19T02:42:07.625Z,16.00
2022-11-19T02:44:35.073Z,15.80
2022-11-19T02:46:44.338Z,15.57
2022-11-19T02:48:55.234Z,16.30
2022-11-19T02:51:03.568Z,15.15
2022-11-19T02:53:08.959Z,15.23
2022-11-19T02:55:16.006Z,14.98
2022-11-19T02:57:21.341Z,14.03
2022-11-19T02:59:44.856Z,15.20
2022-11-19T03:02:06.055Z,14.30
2022-11-19T03:04:26.139Z,14.35
2022-11-19T03:06:33.046Z,14.13
2022-11-19T03:08:38.897Z,14.38
2022-11-19T03:10:57.536Z,14.63
2022-11-19T03:13:26.625Z,14.52
2022-11-19T03:15:54.532Z,14.02
2022-11-19T03:18:15.490Z,15.10
2022-11-19T03:20:27.850Z,14.93
2022-11-19T03:22:37.856Z,14.10
2022-11-19T03:24:47.433Z,15.02
2022-11-19T03:26:59.579Z,14.30
2022-11-19T03:29:11.167Z,15.43
2022-11-19T03:31:21.044Z,15.18
2022-11-19T03:33:35.141Z,14.63
2022-11-19T03:35:47.846Z,15.02
2022-11-19T03:37:58.811Z,14.88
2022-11-19T03:40:05.805Z,15.13
2022-11-19T03:42:16.252Z,15.60
2022-11-19T03:44:27.148Z,14.80
2022-11-19T03:46:34.397Z,14.45
2022-11-19T03:48:47.447Z,15.13
2022-11-19T03:51:00.513Z,14.73
2022-11-19T03:53:06.278Z,15.50
2022-11-19T03:55:13.019Z,14.70
2022-11-19T03:57:22.218Z,15.05
2022-11-19T03:59:30.131Z,14.52
2022-11-19T04:01:36.903Z,13.63
2022-11-19T04:04:05.204Z,13.63
2022-11-19T04:06:10.908Z,14.80
2022-11-19T04:08:16.328Z,15.07
2022-11-19T04:10:21.369Z,14.68
2022-11-19T04:12:27.864Z,13.73
2022-11-19T04:14:33.552Z,13.75
2022-11-19T04:16:38.942Z,14.32
2022-11-19T04:18:46.496Z,13.13
2022-11-19T04:22:56.705Z,12.00
2022-11-19T04:25:02.284Z,13.05
2022-11-19T04:27:09.572Z,12.60
2022-11-19T04:29:14.701Z,12.88
2022-11-19T04:31:20.013Z,12.65
2022-11-19T04:33:25.539Z,12.55
2022-11-19T04:35:33.817Z,13.20
2022-11-19T04:37:38.840Z,13.30
2022-11-19T04:39:45.071Z,11.40
2022-11-19T04:41:50.244Z,11.30
2022-11-19T04:43:55.689Z,11.90
2022-11-19T04:46:00.671Z,11.57
2022-11-19T04:48:05.980Z,11.45
2022-11-19T04:50:12.820Z,10.27
2022-11-19T04:52:20.922Z,11.55
2022-11-19T04:54:26.642Z,11.95
2022-11-19T04:56:32.395Z,11.95
2022-11-19T04:58:38.001Z,12.23
2022-11-19T05:00:44.035Z,11.50
2022-11-19T05:02:49.021Z,12.25
2022-11-19T05:04:54.767Z,13.10
2022-11-19T05:06:59.841Z,12.40
2022-11-19T05:09:07.680Z,13.13
2022-11-19T05:11:14.064Z,12.23
2022-11-19T05:13:19.844Z,11.60
2022-11-19T05:15:27.580Z,12.38
2022-11-19T05:17:32.763Z,12.57
2022-11-19T05:19:37.735Z,12.95
2022-11-19T05:21:43.205Z,11.90
2022-11-19T05:23:48.714Z,11.98
2022-11-19T05:25:56.269Z,12.70
2022-11-19T05:30:08.541Z,11.60
2022-11-19T05:32:13.890Z,13.57
2022-11-19T05:34:19.114Z,14.43
2022-11-19T05:36:24.928Z,13.82
2022-11-19T05:38:31.005Z,12.65
2022-11-19T05:40:36.578Z,12.73
2022-11-19T05:42:44.548Z,13.02
2022-11-19T05:44:49.547Z,13.80
2022-11-19T05:46:56.839Z,13.80
2022-11-19T05:49:02.549Z,13.90
2022-11-19T05:51:08.329Z,13.52
2022-11-19T05:53:13.544Z,13.70
2022-11-19T05:55:20.818Z,13.20
2022-11-19T05:57:24.343Z,14.00
2022-11-19T05:59:32.869Z,14.63
2022-11-19T06:01:37.876Z,14.10
2022-11-19T06:03:43.335Z,14.80
2022-11-19T06:05:48.359Z,14.70
2022-11-19T06:07:53.602Z,14.05
2022-11-19T06:09:58.593Z,14.10
2022-11-19T06:12:04.384Z,13.75
2022-11-19T06:14:09.628Z,15.05
2022-11-19T06:16:17.155Z,12.43
2022-11-19T06:18:23.377Z,14.18
2022-11-19T06:20:28.587Z,14.77
2022-11-19T06:24:40.918Z,14.43
2022-11-19T06:26:46.695Z,14.38
2022-11-19T06:28:51.662Z,14.57
2022-11-19T06:30:56.805Z,13.98
2022-11-19T06:33:06.969Z,12.50
2022-11-19T06:35:14.458Z,14.35
2022-11-19T06:37:20.025Z,13.60
2022-11-19T06:39:24.992Z,13.77
2022-11-19T06:41:29.960Z,13.73
2022-11-19T06:43:33.251Z,14.07
2022-11-19T06:45:38.268Z,14.43
2022-11-19T06:47:45.161Z,14.02
2022-11-19T06:49:53.036Z,15.43
2022-11-19T06:51:58.074Z,15.15
2022-11-19T06:54:04.331Z,13.77
2022-11-19T06:56:11.418Z,14.57
2022-11-19T06:58:16.796Z,14.82
2022-11-19T07:00:22.507Z,14.63
2022-11-19T07:02:27.479Z,13.30
2022-11-19T07:04:32.775Z,13.85
2022-11-19T07:06:40.377Z,15.63
2022-11-19T07:08:46.275Z,16.33
2022-11-19T07:10:51.468Z,16.67
2022-11-19T07:12:56.645Z,16.73
2022-11-19T07:15:04.613Z,15.60
2022-11-19T07:17:10.217Z,15.60
2022-11-19T07:19:15.769Z,15.93
2022-11-19T07:21:20.810Z,16.20
2022-11-19T07:23:29.723Z,15.05
2022-11-19T07:25:36.856Z,15.57
2022-11-19T07:27:46.949Z,15.45
2022-11-19T07:29:53.229Z,14.98
2022-11-19T07:31:58.605Z,15.85
2022-11-19T07:34:03.827Z,16.30
2022-11-19T07:36:15.470Z,15.43
2022-11-19T07:38:24.617Z,15.77
2022-11-19T07:40:34.094Z,16.38
2022-11-19T07:42:49.763Z,16.40
2022-11-19T07:44:55.232Z,15.95
2022-11-19T07:47:03.000Z,16.25
2022-11-19T07:49:08.026Z,15.00
2022-11-19T07:51:13.165Z,15.80
2022-11-19T07:53:18.678Z,14.75
2022-11-19T07:55:24.674Z,15.93
2022-11-19T07:57:32.924Z,16.05
2022-11-19T07:59:38.407Z,16.20
2022-11-19T08:01:43.745Z,14.85
2022-11-19T08:03:53.449Z,14.10
2022-11-19T08:06:01.112Z,14.82
2022-11-19T08:08:07.414Z,15.00
2022-11-19T08:10:15.036Z,15.02
2022-11-19T08:12:20.919Z,20.08
2022-11-19T08:14:29.640Z,15.23
2022-11-19T08:16:54.458Z,15.32
2022-11-19T08:18:59.455Z,14.45
2022-11-19T08:21:09.633Z,13.75
2022-11-19T08:23:16.752Z,15.43
2022-11-19T08:25:22.772Z,13.63
2022-11-19T08:27:27.889Z,15.68
2022-11-19T08:29:35.833Z,15.10
2022-11-19T08:31:41.742Z,14.90
2022-11-19T08:33:47.542Z,14.75
2022-11-19T08:35:56.690Z,14.00
2022-11-19T08:38:03.073Z,14.15
2022-11-19T08:40:23.051Z,13.38
2022-11-19T08:42:40.483Z,13.77
2022-11-19T08:44:48.271Z,13.90
2022-11-19T08:46:54.123Z,13.80
2022-11-19T08:48:59.120Z,14.27
2022-11-19T08:51:10.204Z,14.00
2022-11-19T08:53:18.920Z,13.15
2022-11-19T08:55:24.838Z,13.15
2022-11-19T08:57:31.032Z,14.38
2022-11-19T08:59:36.340Z,14.15
2022-11-19T09:01:45.554Z,15.52
2022-11-19T09:03:50.726Z,13.98
2022-11-19T09:06:02.413Z,14.65
2022-11-19T09:08:07.817Z,14.25
2022-11-19T09:10:13.713Z,13.07
2022-11-19T09:12:19.052Z,13.10
2022-11-19T09:14:25.693Z,12.40
2022-11-19T09:16:31.274Z,14.30
2022-11-19T09:18:42.699Z,13.73
2022-11-19T09:20:48.799Z,12.75
2022-11-19T09:22:55.276Z,12.88
2022-11-19T09:25:03.166Z,12.88
2022-11-19T09:27:08.132Z,12.75
2022-11-19T09:29:14.365Z,13.27
2022-11-19T09:31:22.101Z,13.68
2022-11-19T09:33:27.956Z,13.68
2022-11-19T09:35:38.234Z,13.20
2022-11-19T09:37:43.227Z,13.23
2022-11-19T09:39:48.777Z,13.23
2022-11-19T09:42:03.096Z,23.02
2022-11-19T09:44:23.674Z,14.23
2022-11-19T09:46:41.310Z,12.65
2022-11-19T09:48:46.776Z,13.15
2022-11-19T09:51:00.307Z,12.40
2022-11-19T09:53:11.979Z,13.10
2022-11-19T09:55:23.393Z,11.93
2022-11-19T09:57:38.603Z,12.27
2022-11-19T09:59:44.597Z,13.30
2022-11-19T10:01:50.789Z,11.63
2022-11-19T10:03:59.052Z,12.27
2022-11-19T10:08:55.778Z,11.18
2022-11-19T10:11:22.277Z,11.38
2022-11-19T10:13:53.373Z,12.50
2022-11-19T10:16:21.197Z,11.52
2022-11-19T10:18:36.734Z,11.88
2022-11-19T10:21:01.402Z,11.35
2022-11-19T10:23:19.173Z,11.18
2022-11-19T10:25:28.299Z,10.75
2022-11-19T10:27:45.184Z,11.77
2022-11-19T10:29:53.952Z,11.00
2022-11-19T10:32:24.946Z,11.65
2022-11-19T10:34:34.901Z,13.00
2022-11-19T10:36:50.171Z,11.02
2022-11-19T10:39:08.428Z,10.50
2022-11-19T10:41:20.004Z,10.90
2022-11-19T10:43:33.070Z,11.05
2022-11-19T10:45:38.814Z,10.00
2022-11-19T10:47:50.541Z,11.18
2022-11-19T10:49:57.773Z,11.02
2022-11-19T10:52:03.491Z,9.73
2022-11-19T10:54:25.287Z,10.02
2022-11-19T10:56:40.283Z,9.55
2022-11-19T10:58:51.549Z,9.90
2022-11-19T11:01:01.138Z,9.75
2022-11-19T11:03:08.026Z,9.73
2022-11-19T11:05:16.534Z,9.60
2022-11-19T11:07:22.024Z,9.88
2022-11-19T11:09:37.265Z,10.63
2022-11-19T11:11:54.851Z,9.25
2022-11-19T11:14:15.306Z,9.75
2022-11-19T11:16:24.236Z,8.80
2022-11-19T11:18:35.271Z,9.75
2022-11-19T11:20:51.082Z,10.77
2022-11-19T11:23:12.124Z,9.98
2022-11-19T11:25:27.808Z,11.38
2022-11-19T11:27:36.419Z,11.43
2022-11-19T11:29:44.297Z,10.77
2022-11-19T11:34:02.601Z,10.50
2022-11-19T11:36:13.866Z,11.70
2022-11-19T11:38:24.579Z,11.15
2022-11-19T11:40:33.253Z,11.68
2022-11-19T11:42:39.788Z,10.40
2022-11-19T11:44:54.371Z,11.00
2022-11-19T11:47:03.853Z,10.55
2022-11-19T11:49:18.275Z,12.48
2022-11-19T11:51:36.616Z,10.48
2022-11-19T11:53:43.425Z,12.10
2022-11-19T11:56:04.304Z,11.05
2022-11-19T11:58:37.384Z,9.70
2022-11-19T12:00:48.509Z,9.85
2022-11-19T12:03:04.353Z,8.82
2022-11-19T12:05:19.837Z,9.30
2022-11-19T12:08:02.847Z,10.05
2022-11-19T12:10:28.603Z,9.80
2022-11-19T12:12:45.170Z,9.30
2022-11-19T12:15:00.633Z,10.50
2022-11-19T12:17:29.554Z,10.40
2022-11-19T12:19:50.628Z,10.15
2022-11-19T12:22:06.317Z,10.32
2022-11-19T12:24:30.615Z,11.63
2022-11-19T12:26:48.739Z,11.30
2022-11-19T12:29:13.462Z,11.07
2022-11-19T12:31:39.413Z,10.93
2022-11-19T12:34:21.225Z,12.07
2022-11-19T12:36:33.109Z,10.30
2022-11-19T12:38:50.172Z,10.50
2022-11-19T12:41:10.309Z,10.02
2022-11-19T12:43:39.361Z,11.70
2022-11-19T12:45:59.838Z,10.85
2022-11-19T12:48:45.955Z,11.27
2022-11-19T12:53:21.049Z,12.23
2022-11-19T12:55:39.336Z,11.80
2022-11-19T12:57:54.645Z,12.20
2022-11-19T13:00:15.458Z,11.05
2022-11-19T13:02:31.275Z,11.32
2022-11-19T13:04:45.186Z,12.38
2022-11-19T13:07:02.518Z,11.55
2022-11-19T13:09:18.825Z,11.70
2022-11-19T13:11:36.365Z,12.20
2022-11-19T13:13:48.555Z,11.68
2022-11-19T13:16:03.057Z,12.52
2022-11-19T13:18:17.407Z,12.15
2022-11-19T13:20:30.855Z,13.00
2022-11-19T13:22:39.936Z,12.07
2022-11-19T13:24:49.641Z,12.55
2022-11-19T13:26:58.251Z,11.77
2022-11-19T13:29:17.210Z,13.20
2022-11-19T13:31:33.147Z,13.68
2022-11-19T13:33:50.843Z,12.88
2022-11-19T13:36:03.555Z,12.73
2022-11-19T13:38:21.363Z,13.27
2022-11-19T13:40:32.134Z,12.82
2022-11-19T13:43:04.212Z,12.85
2022-11-19T13:45:18.108Z,12.38
2022-11-19T13:47:28.978Z,12.23
2022-11-19T13:49:42.510Z,13.25
2022-11-19T13:51:51.373Z,15.40
2022-11-19T13:54:03.276Z,17.13
2022-11-19T13:56:14.035Z,13.38
2022-11-19T13:58:25.009Z,15.00
2022-11-19T14:00:31.497Z,13.05
2022-11-19T14:03:07.869Z,14.07
2022-11-19T14:06:08.512Z,14.25
2022-11-19T14:08:28.675Z,15.48
2022-11-19T14:10:39.710Z,12.93
2022-11-19T14:13:09.499Z,13.63
2022-11-19T14:15:42.064Z,14.25
2022-11-19T14:18:09.533Z,14.95
2022-11-19T14:20:53.993Z,14.20
2022-11-19T14:23:12.469Z,12.95
2022-11-19T14:25:58.196Z,13.43
2022-11-19T14:28:48.812Z,14.27
2022-11-19T14:31:07.120Z,14.20
2022-11-19T14:33:57.480Z,14.30
2022-11-19T14:36:13.417Z,13.90
2022-11-19T14:38:45.583Z,14.75
2022-11-19T14:41:03.929Z,13.63
2022-11-19T14:43:40.602Z,15.77
2022-11-19T14:46:28.108Z,14.82
2022-11-19T14:48:49.540Z,14.95
2022-11-19T14:51:07.341Z,14.27
2022-11-19T14:53:23.403Z,14.05
2022-11-19T14:55:31.058Z,14.35
2022-11-19T14:59:52.332Z,13.15
2022-11-19T15:02:06.569Z,13.15
2022-11-19T15:04:15.932Z,13.85
2022-11-19T15:06:24.722Z,14.00
2022-11-19T15:08:50.249Z,14.20
2022-11-19T15:11:08.713Z,13.93
2022-11-19T15:13:27.674Z,14.23
2022-11-19T15:15:44.720Z,13.60
2022-11-19T15:17:52.036Z,13.93
2022-11-19T15:20:21.154Z,13.10
2022-11-19T15:22:41.404Z,12.70
2022-11-19T15:25:13.880Z,13.00
2022-11-19T15:27:31.601Z,12.77
2022-11-19T15:30:05.595Z,14.40
2022-11-19T15:32:27.611Z,13.20
2022-11-19T15:35:10.392Z,11.85
2022-11-19T15:37:20.291Z,14.70
2022-11-19T15:39:34.512Z,14.57
2022-11-19T15:42:00.402Z,13.80
2022-11-19T15:44:10.656Z,15.85
2022-11-19T15:46:27.361Z,13.43
2022-11-19T15:48:42.321Z,13.80
2022-11-19T15:50:48.162Z,13.93
2022-11-19T15:53:04.450Z,13.80
2022-11-19T15:55:23.422Z,12.65
2022-11-19T15:57:29.824Z,13.48
2022-11-19T15:59:40.469Z,13.55
2022-11-19T16:01:46.744Z,13.38
2022-11-19T16:03:56.178Z,13.55
2022-11-19T16:06:08.528Z,14.05
2022-11-19T16:08:17.447Z,13.63
2022-11-19T16:10:31.539Z,13.77
2022-11-19T16:12:49.302Z,13.80
2022-11-19T16:17:31.246Z,12.90
2022-11-19T16:19:36.510Z,14.65
2022-11-19T16:21:44.761Z,13.70
2022-11-19T16:24:02.250Z,13.80
2022-11-19T16:26:09.808Z,13.60
2022-11-19T16:28:18.714Z,14.30
2022-11-19T16:30:26.737Z,14.70
2022-11-19T16:32:31.741Z,14.52
2022-11-19T16:34:37.694Z,14.90
2022-11-19T16:36:42.899Z,14.52
2022-11-19T16:38:51.326Z,15.02
2022-11-19T16:41:09.637Z,15.20
2022-11-19T16:43:18.268Z,15.85
2022-11-19T16:45:26.693Z,16.10
2022-11-19T16:47:35.540Z,15.98
2022-11-19T16:50:03.729Z,14.65
2022-11-19T16:52:09.081Z,16.00
2022-11-19T16:54:14.688Z,15.55
2022-11-19T16:56:19.676Z,15.93
2022-11-19T16:58:30.505Z,14.15
2022-11-19T17:00:38.419Z,14.88
2022-11-19T17:04:51.650Z,14.73
2022-11-19T17:06:57.039Z,15.45
2022-11-19T17:09:04.102Z,15.45
2022-11-19T17:11:34.227Z,14.30
2022-11-19T17:13:42.460Z,14.98
2022-11-19T17:15:49.256Z,14.95
2022-11-19T17:17:55.589Z,14.90
2022-11-19T17:20:00.810Z,15.55
2022-11-19T17:22:08.471Z,15.60
2022-11-19T17:24:16.111Z,16.15
2022-11-19T17:26:26.606Z,16.77
2022-11-19T17:28:41.054Z,15.32
2022-11-19T17:30:49.641Z,16.05
2022-11-19T17:32:58.831Z,16.15
2022-11-19T17:35:03.765Z,15.43
2022-11-19T17:37:11.551Z,15.50
2022-11-19T17:39:21.189Z,19.83
2022-11-19T17:41:45.474Z,15.18
2022-11-19T17:44:02.867Z,15.25
2022-11-19T17:46:10.546Z,15.35
2022-11-19T17:48:23.352Z,15.00
2022-11-19T17:50:28.302Z,15.30
2022-11-19T17:52:34.835Z,14.35
2022-11-19T17:54:39.973Z,16.52
2022-11-19T17:56:45.294Z,15.20
2022-11-19T17:58:50.592Z,14.57
2022-11-19T18:00:55.559Z,14.57
2022-11-19T18:03:03.475Z,15.63
2022-11-19T18:07:21.678Z,15.18
2022-11-19T18:09:28.059Z,15.43
2022-11-19T18:11:36.388Z,15.25
2022-11-19T18:13:43.323Z,15.75
2022-11-19T18:15:48.329Z,14.85
2022-11-19T18:17:54.620Z,15.38
2022-11-19T18:20:02.579Z,15.35
2022-11-19T18:22:08.417Z,16.77
2022-11-19T18:24:15.182Z,16.42
2022-11-19T18:26:24.980Z,16.45
2022-11-19T18:28:29.897Z,16.60
2022-11-19T18:30:35.059Z,15.30
2022-11-19T18:32:40.386Z,16.08
2022-11-19T18:34:46.492Z,17.33
2022-11-19T18:36:54.592Z,16.92
2022-11-19T18:38:59.536Z,16.88
2022-11-19T18:41:04.697Z,16.65
2022-11-19T18:43:22.124Z,16.10
2022-11-19T18:45:27.246Z,16.02
2022-11-19T18:47:32.640Z,16.05
2022-11-19T18:49:38.547Z,16.70
2022-11-19T18:51:44.803Z,16.17
2022-11-19T18:53:52.737Z,16.73
2022-11-19T18:55:57.812Z,16.65
2022-11-19T18:58:03.085Z,16.27
2022-11-19T19:00:11.522Z,16.42
2022-11-19T19:02:16.505Z,16.58
2022-11-19T19:04:22.011Z,16.63
2022-11-19T19:06:27.800Z,16.70
2022-11-19T19:08:33.189Z,16.45
2022-11-19T19:10:41.472Z,16.17
2022-11-19T19:14:52.199Z,16.88
2022-11-19T19:16:57.659Z,17.27
2022-11-19T19:19:03.570Z,17.25
2022-11-19T19:21:16.147Z,17.98
2022-11-19T19:23:21.507Z,18.20
2022-11-19T19:25:26.509Z,19.20
2022-11-19T19:27:35.099Z,17.85
2022-11-19T19:29:40.036Z,18.05
2022-11-19T19:31:44.972Z,19.10
2022-11-19T19:33:50.119Z,18.33
2022-11-19T19:35:55.214Z,17.90
2022-11-19T19:38:00.937Z,17.70
2022-11-19T19:40:06.739Z,17.77
2022-11-19T19:42:11.856Z,17.08
2022-11-19T19:44:20.221Z,17.58
2022-11-19T19:46:26.429Z,18.05
2022-11-19T19:48:32.441Z,17.25
2022-11-19T19:50:37.354Z,17.17
2022-11-19T19:52:42.455Z,17.58
2022-11-19T19:54:47.381Z,18.48
2022-11-19T19:56:53.228Z,18.02
2022-11-19T19:59:00.160Z,18.42
2022-11-19T20:01:13.269Z,18.10
2022-11-19T20:03:18.535Z,18.05
2022-11-19T20:05:23.500Z,19.20
2022-11-19T20:07:29.147Z,18.58
2022-11-19T20:09:34.518Z,18.02
2022-11-19T20:11:40.701Z,16.73
2022-11-19T20:13:47.220Z,17.52
2022-11-19T20:15:52.547Z,15.57
2022-11-19T20:18:00.120Z,16.52
2022-11-19T20:20:05.657Z,15.63
2022-11-19T20:22:10.667Z,15.45
2022-11-19T20:24:17.390Z,16.13
2022-11-19T20:26:26.097Z,15.70
2022-11-19T20:28:32.206Z,16.40
2022-11-19T20:30:37.642Z,15.80
2022-11-19T20:32:42.678Z,16.42
2022-11-19T20:34:50.200Z,16.63
2022-11-19T20:36:55.276Z,17.25
2022-11-19T20:39:00.493Z,16.85
2022-11-19T20:41:28.863Z,16.70
2022-11-19T20:46:08.322Z,16.75
2022-11-19T20:48:13.533Z,17.13
2022-11-19T20:50:21.547Z,18.75
2022-11-19T20:54:31.988Z,16.50
2022-11-19T20:56:37.780Z,18.15
2022-11-19T20:58:44.109Z,17.35
2022-11-19T21:00:49.271Z,19.38
2022-11-19T21:02:54.191Z,18.10
2022-11-19T21:04:59.599Z,18.15
2022-11-19T21:07:07.655Z,16.55
2022-11-19T21:09:12.690Z,17.25
2022-11-19T21:11:18.268Z,17.80
2022-11-19T21:13:23.204Z,17.13
2022-11-19T21:15:28.187Z,17.48
2022-11-19T21:17:33.845Z,18.95
2022-11-19T21:19:39.703Z,17.20
2022-11-19T21:21:45.631Z,17.55
2022-11-19T21:23:54.190Z,18.02
2022-11-19T21:26:03.995Z,17.45
2022-11-19T21:28:09.217Z,16.60
2022-11-19T21:30:15.638Z,15.88
2022-11-19T21:32:21.931Z,16.80
2022-11-19T21:34:27.292Z,16.33
2022-11-19T21:36:32.286Z,15.95
2022-11-19T21:38:38.565Z,16.63
2022-11-19T21:40:46.845Z,16.73
2022-11-19T21:42:52.496Z,16.17
2022-11-19T21:44:57.875Z,16.77
2022-11-19T21:47:02.824Z,15.60
2022-11-19T21:49:08.324Z,15.75
2022-11-19T21:51:15.747Z,16.48
2022-11-19T21:53:23.129Z,16.50
2022-11-19T21:55:28.576Z,16.05
2022-11-19T21:57:36.179Z,16.63
2022-11-19T21:59:41.140Z,16.33
2022-11-19T22:01:50.439Z,16.15
2022-11-19T22:03:58.734Z,16.52
2022-11-19T22:06:04.794Z,17.33
2022-11-19T22:08:09.820Z,16.67
2022-11-19T22:10:15.776Z,17.08
2022-11-19T22:12:21.336Z,16.88
2022-11-19T22:14:29.215Z,15.18
2022-11-19T22:16:37.348Z,15.80
2022-11-19T22:18:42.667Z,16.48
2022-11-19T22:20:47.737Z,16.45
2022-11-19T22:22:53.033Z,17.17
2022-11-19T22:24:58.459Z,16.50
2022-11-19T22:27:03.412Z,17.42
2022-11-19T22:29:09.355Z,16.60
2022-11-19T22:31:18.605Z,17.52
2022-11-19T22:33:23.741Z,16.35
2022-11-19T22:35:29.041Z,19.30
2022-11-19T22:37:34.108Z,18.25
2022-11-19T22:39:39.472Z,17.65
2022-11-19T22:41:44.826Z,16.42
2022-11-19T22:43:49.983Z,16.92
2022-11-19T22:45:54.973Z,16.50
2022-11-19T22:48:02.886Z,27.20
2022-11-19T22:52:16.132Z,30.33
2022-11-19T22:54:21.163Z,27.42
2022-11-19T22:56:28.618Z,17.42
2022-11-19T22:58:33.974Z,15.82
2022-11-19T23:00:45.077Z,16.23
2022-11-19T23:02:50.072Z,15.70
2022-11-19T23:04:58.033Z,16.90
2022-11-19T23:07:03.516Z,22.83
2022-11-19T23:09:10.648Z,35.22
2022-11-19T23:11:38.394Z,34.22
2022-11-19T23:13:43.941Z,23.13
2022-11-19T23:16:01.846Z,25.80
2022-11-19T23:18:07.399Z,17.67
2022-11-19T23:20:15.752Z,16.20
2022-11-19T23:22:21.145Z,16.38
2022-11-19T23:24:26.651Z,17.20
2022-11-19T23:26:34.099Z,16.30
2022-11-19T23:28:40.980Z,16.63
2022-11-19T23:30:46.291Z,15.77
2022-11-19T23:32:51.283Z,16.30
2022-11-19T23:34:56.235Z,16.23
2022-11-19T23:37:03.951Z,15.98
2022-11-19T23:39:10.905Z,38.17
2022-11-19T23:41:18.391Z,18.00
2022-11-19T23:45:29.249Z,18.05
2022-11-19T23:47:34.235Z,19.02
2022-11-19T23:49:39.608Z,19.48
2022-11-19T23:51:44.629Z,18.40
2022-11-19T23:53:53.802Z,18.33
2022-11-19T23:55:59.103Z,18.40
2022-11-19T23:58:04.106Z,18.67
